createdAt,value
2022-09-22T00:01:30.374Z,9.52
2022-09-22T00:04:00.254Z,9.68
2022-09-22T00:06:29.641Z,9.79
2022-09-22T00:09:00.606Z,9.28
2022-09-22T00:11:31.042Z,9.36
2022-09-22T00:14:02.235Z,9.39
2022-09-22T00:16:33.956Z,9.16
2022-09-22T00:19:01.785Z,8.74
2022-09-22T00:21:30.997Z,8.37
2022-09-22T00:24:01.523Z,8.46
2022-09-22T00:26:29.252Z,8.17
2022-09-22T00:28:57.306Z,8.67
2022-09-22T00:31:26.954Z,9.10
2022-09-22T00:33:55.377Z,9.20
2022-09-22T00:36:26.604Z,9.29
2022-09-22T00:38:56.360Z,9.12
2022-09-22T00:41:26.375Z,9.30
2022-09-22T00:44:33.958Z,9.23
2022-09-22T00:47:09.294Z,9.11
2022-09-22T00:49:45.153Z,8.56
2022-09-22T00:52:17.012Z,8.92
2022-09-22T00:54:44.737Z,8.90
2022-09-22T00:57:16.271Z,8.76
2022-09-22T00:59:46.302Z,9.00
2022-09-22T01:02:15.952Z,8.57
2022-09-22T01:04:43.694Z,8.99
2022-09-22T01:07:13.838Z,9.16
2022-09-22T01:09:41.736Z,9.28
2022-09-22T01:12:09.777Z,9.19
2022-09-22T01:15:04.955Z,8.96
2022-09-22T01:17:42.046Z,9.08
2022-09-22T01:20:41.812Z,9.20
2022-09-22T01:23:43.390Z,9.27
2022-09-22T01:26:32.206Z,9.20
2022-09-22T01:29:19.391Z,9.15
2022-09-22T01:31:55.427Z,9.18
2022-09-22T01:34:31.373Z,9.24
2022-09-22T01:37:06.814Z,9.30
2022-09-22T01:39:40.267Z,9.09
2022-09-22T01:42:12.573Z,8.71
2022-09-22T01:44:49.154Z,7.91
2022-09-22T01:47:22.696Z,8.40
2022-09-22T01:49:54.196Z,8.35
2022-09-22T01:52:27.161Z,8.42
2022-09-22T01:54:58.995Z,8.23
2022-09-22T01:57:38.004Z,8.71
2022-09-22T02:00:09.671Z,8.89
2022-09-22T02:02:48.565Z,8.99
2022-09-22T02:05:21.854Z,9.00
2022-09-22T02:07:53.275Z,8.96
2022-09-22T02:10:26.846Z,8.88
2022-09-22T02:12:55.425Z,8.92
2022-09-22T02:15:41.616Z,8.78
2022-09-22T02:18:16.036Z,8.87
2022-09-22T02:20:43.780Z,8.71
2022-09-22T02:23:11.550Z,8.44
2022-09-22T02:25:41.588Z,8.65
2022-09-22T02:28:11.303Z,8.70
2022-09-22T02:30:39.407Z,8.68
2022-09-22T02:33:07.696Z,8.69
2022-09-22T02:35:40.361Z,8.43
2022-09-22T02:38:14.282Z,7.91
2022-09-22T02:40:47.471Z,8.16
2022-09-22T02:43:23.095Z,7.32
2022-09-22T02:45:58.482Z,7.57
2022-09-22T02:48:29.402Z,7.36
2022-09-22T02:50:58.815Z,7.93
2022-09-22T02:53:26.510Z,8.27
2022-09-22T02:55:54.234Z,8.45
2022-09-22T02:58:21.910Z,8.54
2022-09-22T03:00:49.562Z,8.48
2022-09-22T03:03:17.250Z,8.50
2022-09-22T03:05:44.960Z,8.57
2022-09-22T03:08:13.990Z,8.33
2022-09-22T03:10:41.722Z,8.39
2022-09-22T03:13:16.317Z,8.32
2022-09-22T03:15:45.135Z,8.34
2022-09-22T03:18:13.216Z,8.14
2022-09-22T03:20:40.922Z,8.09
2022-09-22T03:23:08.921Z,7.90
2022-09-22T03:25:38.001Z,7.69
2022-09-22T03:28:08.240Z,7.58
2022-09-22T03:30:37.167Z,7.16
2022-09-22T03:33:05.038Z,7.40
2022-09-22T03:35:32.806Z,7.78
2022-09-22T03:38:00.530Z,7.87
2022-09-22T03:40:28.411Z,7.51
2022-09-22T03:42:57.537Z,7.80
2022-09-22T03:45:25.447Z,7.87
2022-09-22T03:47:54.563Z,7.05
2022-09-22T03:50:22.549Z,7.02
2022-09-22T03:52:50.215Z,7.16
2022-09-22T03:55:18.422Z,7.62
2022-09-22T03:57:46.098Z,7.73
2022-09-22T04:00:16.996Z,7.88
2022-09-22T04:02:44.840Z,7.59
2022-09-22T04:05:14.583Z,7.23
2022-09-22T04:07:44.997Z,7.59
2022-09-22T04:10:12.790Z,7.83
2022-09-22T04:12:42.900Z,7.76
2022-09-22T04:15:10.904Z,7.70
2022-09-22T04:17:39.946Z,7.81
2022-09-22T04:20:11.273Z,7.76
2022-09-22T04:22:39.634Z,7.22
2022-09-22T04:25:08.971Z,7.45
2022-09-22T04:27:38.757Z,7.16
2022-09-22T04:30:07.627Z,7.27
2022-09-22T04:32:35.308Z,7.54
2022-09-22T04:35:04.472Z,7.50
2022-09-22T04:37:32.155Z,7.46
2022-09-22T04:40:00.095Z,7.39
2022-09-22T04:42:29.878Z,7.43
2022-09-22T04:45:01.842Z,7.43
2022-09-22T04:47:30.085Z,7.51
2022-09-22T04:49:57.998Z,7.54
2022-09-22T04:52:27.472Z,7.50
2022-09-22T04:54:55.131Z,7.51
2022-09-22T04:57:22.799Z,7.60
2022-09-22T04:59:50.478Z,6.66
2022-09-22T05:02:19.066Z,6.68
2022-09-22T05:04:49.110Z,6.60
2022-09-22T05:07:16.875Z,6.75
2022-09-22T05:09:46.093Z,7.01
2022-09-22T05:12:13.805Z,6.05
2022-09-22T05:14:43.566Z,6.14
2022-09-22T05:17:11.275Z,6.46
2022-09-22T05:19:38.996Z,6.54
2022-09-22T05:22:06.696Z,6.61
2022-09-22T05:24:34.379Z,6.93
2022-09-22T05:27:04.725Z,6.80
2022-09-22T05:29:32.531Z,7.26
2022-09-22T05:32:00.600Z,7.38
2022-09-22T05:34:28.401Z,7.33
2022-09-22T05:36:56.089Z,7.55
2022-09-22T05:39:23.847Z,7.65
2022-09-22T05:41:53.673Z,7.65
2022-09-22T05:44:23.574Z,7.85
2022-09-22T05:46:51.289Z,7.96
2022-09-22T05:49:18.980Z,7.78
2022-09-22T05:51:47.086Z,7.97
2022-09-22T05:54:16.586Z,8.01
2022-09-22T05:56:49.199Z,8.15
2022-09-22T05:59:16.944Z,8.23
2022-09-22T06:01:46.148Z,8.31
2022-09-22T06:04:14.070Z,8.47
2022-09-22T06:06:42.395Z,8.61
2022-09-22T06:09:10.615Z,8.70
2022-09-22T06:11:38.880Z,8.83
2022-09-22T06:14:06.978Z,8.93
2022-09-22T06:16:35.460Z,9.03
2022-09-22T06:19:05.467Z,9.16
2022-09-22T06:21:33.679Z,9.25
2022-09-22T06:24:02.206Z,9.37
2022-09-22T06:26:30.199Z,9.47
2022-09-22T06:28:58.561Z,9.56
2022-09-22T06:31:26.702Z,9.65
2022-09-22T06:33:54.811Z,9.72
2022-09-22T06:36:30.391Z,9.78
2022-09-22T06:38:59.383Z,9.87
2022-09-22T06:41:27.842Z,9.95
2022-09-22T06:44:03.215Z,10.00
2022-09-22T06:46:34.079Z,10.13
2022-09-22T06:49:03.359Z,10.10
2022-09-22T06:51:34.244Z,10.35
2022-09-22T06:54:04.176Z,10.55
2022-09-22T06:56:37.086Z,10.09
2022-09-22T06:59:12.942Z,10.28
2022-09-22T07:01:43.105Z,10.46
2022-09-22T07:04:12.329Z,10.30
2022-09-22T07:06:42.769Z,10.38
2022-09-22T07:09:12.501Z,10.95
2022-09-22T07:11:40.745Z,10.52
2022-09-22T07:14:11.845Z,10.44
2022-09-22T07:16:41.000Z,11.17
2022-09-22T07:19:09.229Z,9.67
2022-09-22T07:21:37.956Z,10.54
2022-09-22T07:24:09.216Z,10.84
2022-09-22T07:26:39.788Z,11.67
2022-09-22T07:29:11.839Z,11.04
2022-09-22T07:31:41.511Z,11.55
2022-09-22T07:34:10.270Z,11.45
2022-09-22T07:36:39.141Z,11.21
2022-09-22T07:39:12.243Z,11.66
2022-09-22T07:41:46.783Z,12.39
2022-09-22T07:44:33.714Z,12.46
2022-09-22T07:47:03.119Z,13.47
2022-09-22T07:49:31.483Z,13.97
2022-09-22T07:51:59.601Z,14.54
2022-09-22T07:54:30.761Z,14.13
2022-09-22T07:56:59.342Z,14.80
2022-09-22T07:59:27.833Z,13.93
2022-09-22T08:01:55.843Z,15.33
2022-09-22T08:04:26.324Z,15.14
2022-09-22T08:06:56.360Z,15.15
2022-09-22T08:09:25.425Z,14.63
2022-09-22T08:11:55.145Z,14.51
2022-09-22T08:14:23.995Z,15.76
2022-09-22T08:16:54.021Z,16.20
2022-09-22T08:19:25.039Z,17.11
2022-09-22T08:21:55.062Z,16.55
2022-09-22T08:24:24.051Z,17.18
2022-09-22T08:26:56.284Z,17.75
2022-09-22T08:29:25.328Z,17.07
2022-09-22T08:31:54.273Z,15.92
2022-09-22T08:34:23.171Z,17.59
2022-09-22T08:36:53.695Z,17.79
2022-09-22T08:39:21.523Z,18.30
2022-09-22T08:42:08.451Z,18.59
2022-09-22T08:44:42.098Z,18.89
2022-09-22T08:47:37.828Z,19.30
2022-09-22T08:50:36.334Z,18.99
2022-09-22T08:53:10.013Z,19.54
2022-09-22T08:55:43.019Z,19.42
2022-09-22T08:58:24.531Z,20.17
2022-09-22T09:01:01.501Z,20.43
2022-09-22T09:03:39.541Z,20.01
2022-09-22T09:06:14.188Z,19.27
2022-09-22T09:09:12.494Z,20.47
2022-09-22T09:11:58.070Z,20.21
2022-09-22T09:14:50.499Z,20.33
2022-09-22T09:17:22.549Z,20.49
2022-09-22T09:19:55.933Z,20.49
2022-09-22T09:22:28.222Z,20.95
2022-09-22T09:27:54.128Z,20.43
2022-09-22T09:30:23.863Z,21.24
2022-09-22T09:32:57.618Z,20.77
2022-09-22T09:35:41.255Z,21.08
2022-09-22T09:38:14.695Z,21.19
2022-09-22T09:40:43.120Z,21.04
2022-09-22T09:43:12.068Z,21.43
2022-09-22T09:45:54.244Z,18.75
2022-09-22T09:48:32.254Z,19.16
2022-09-22T09:51:05.342Z,20.35
2022-09-22T09:53:41.086Z,20.56
2022-09-22T09:56:22.378Z,20.19
2022-09-22T09:59:15.370Z,20.97
2022-09-22T10:01:48.169Z,20.92
2022-09-22T10:04:22.517Z,19.18
2022-09-22T10:06:50.746Z,19.54
2022-09-22T10:09:27.820Z,19.75
2022-09-22T10:12:00.700Z,20.68
2022-09-22T10:14:32.532Z,20.95
2022-09-22T10:17:03.953Z,21.50
2022-09-22T10:19:34.644Z,21.37
2022-09-22T10:22:25.293Z,21.71
2022-09-22T10:24:59.254Z,18.55
2022-09-22T10:27:28.862Z,18.69
2022-09-22T10:30:23.792Z,20.20
2022-09-22T10:33:11.739Z,20.55
2022-09-22T10:35:41.004Z,20.76
2022-09-22T10:38:16.507Z,20.81
2022-09-22T10:40:48.462Z,20.40
2022-09-22T10:43:37.021Z,20.72
2022-09-22T10:46:40.534Z,19.22
2022-09-22T10:49:14.447Z,19.80
2022-09-22T10:51:59.700Z,20.41
2022-09-22T10:54:48.238Z,21.34
2022-09-22T10:57:27.032Z,21.61
2022-09-22T11:00:12.048Z,21.65
2022-09-22T11:03:09.717Z,21.06
2022-09-22T11:06:09.005Z,21.71
2022-09-22T11:09:03.026Z,21.49
2022-09-22T11:11:55.427Z,20.59
2022-09-22T11:14:37.346Z,21.59
2022-09-22T11:17:18.384Z,21.22
2022-09-22T11:20:23.194Z,21.17
2022-09-22T11:23:08.884Z,21.54
2022-09-22T11:25:50.566Z,22.40
2022-09-22T11:28:34.959Z,21.89
2022-09-22T11:31:05.981Z,22.61
2022-09-22T11:34:03.686Z,20.81
2022-09-22T11:36:56.237Z,19.89
2022-09-22T11:39:46.245Z,22.03
2022-09-22T11:42:21.469Z,22.81
2022-09-22T11:45:01.968Z,22.88
2022-09-22T11:47:43.874Z,22.79
2022-09-22T11:50:40.182Z,20.92
2022-09-22T11:53:20.904Z,21.52
2022-09-22T11:56:04.946Z,21.05
2022-09-22T11:58:34.545Z,21.43
2022-09-22T12:01:12.304Z,20.49
2022-09-22T12:03:46.113Z,19.24
2022-09-22T12:06:18.748Z,20.10
2022-09-22T12:11:28.656Z,20.47
2022-09-22T12:13:58.923Z,21.45
2022-09-22T12:16:41.525Z,20.64
2022-09-22T12:19:22.337Z,19.65
2022-09-22T12:21:59.663Z,21.61
2022-09-22T12:24:27.452Z,22.38
2022-09-22T12:26:56.738Z,21.13
2022-09-22T12:29:28.441Z,21.88
2022-09-22T12:31:58.994Z,22.14
2022-09-22T12:34:30.544Z,19.55
2022-09-22T12:37:01.628Z,22.04
2022-09-22T12:39:32.286Z,22.04
2022-09-22T12:42:04.183Z,22.66
2022-09-22T12:44:36.140Z,22.16
2022-09-22T12:47:07.139Z,22.76
2022-09-22T12:49:35.254Z,22.74
2022-09-22T12:52:03.195Z,22.60
2022-09-22T12:54:48.972Z,23.21
2022-09-22T12:57:31.371Z,21.34
2022-09-22T13:00:13.662Z,19.72
2022-09-22T13:02:43.353Z,19.18
2022-09-22T13:05:36.747Z,21.24
2022-09-22T13:08:04.778Z,21.75
2022-09-22T13:11:00.034Z,21.90
2022-09-22T13:13:40.596Z,22.10
2022-09-22T13:16:37.383Z,20.93
2022-09-22T13:19:10.874Z,22.37
2022-09-22T13:21:41.543Z,22.31
2022-09-22T13:24:19.526Z,22.21
2022-09-22T13:26:47.303Z,21.56
2022-09-22T13:29:18.402Z,21.89
2022-09-22T13:31:47.732Z,21.87
2022-09-22T13:34:20.351Z,22.20
2022-09-22T13:36:48.820Z,22.32
2022-09-22T13:39:20.544Z,22.17
2022-09-22T13:41:51.428Z,21.48
2022-09-22T13:44:25.026Z,20.90
2022-09-22T13:46:53.839Z,21.46
2022-09-22T13:49:30.845Z,21.93
2022-09-22T13:52:02.315Z,21.26
2022-09-22T13:54:33.649Z,21.12
2022-09-22T13:57:04.522Z,21.27
2022-09-22T13:59:40.534Z,21.93
2022-09-22T14:02:12.675Z,21.78
2022-09-22T14:05:02.732Z,21.33
2022-09-22T14:07:38.343Z,21.18
2022-09-22T14:10:14.920Z,21.09
2022-09-22T14:12:42.748Z,21.44
2022-09-22T14:15:43.417Z,21.52
2022-09-22T14:18:21.127Z,21.03
2022-09-22T14:20:49.450Z,21.14
2022-09-22T14:23:23.816Z,21.28
2022-09-22T14:25:51.601Z,21.42
2022-09-22T14:28:23.419Z,21.18
2022-09-22T14:30:52.906Z,21.62
2022-09-22T14:33:25.614Z,21.54
2022-09-22T14:36:01.751Z,21.46
2022-09-22T14:38:34.253Z,21.26
2022-09-22T14:41:02.820Z,21.21
2022-09-22T14:43:35.568Z,19.61
2022-09-22T14:46:21.854Z,20.59
2022-09-22T14:48:49.673Z,20.53
2022-09-22T14:51:20.652Z,20.81
2022-09-22T14:53:51.546Z,20.40
2022-09-22T14:56:27.321Z,20.93
2022-09-22T14:58:57.845Z,20.68
2022-09-22T15:01:47.604Z,20.99
2022-09-22T15:04:18.757Z,20.92
2022-09-22T15:06:48.191Z,20.91
2022-09-22T15:09:24.716Z,20.32
2022-09-22T15:11:54.712Z,20.40
2022-09-22T15:14:42.408Z,20.77
2022-09-22T15:17:57.299Z,20.96
2022-09-22T15:20:29.003Z,20.67
2022-09-22T15:22:58.777Z,20.11
2022-09-22T15:25:26.771Z,20.23
2022-09-22T15:27:54.739Z,20.45
2022-09-22T15:30:23.029Z,20.70
2022-09-22T15:32:52.730Z,20.40
2022-09-22T15:35:20.982Z,20.17
2022-09-22T15:37:50.632Z,20.20
2022-09-22T15:40:21.261Z,20.09
2022-09-22T15:43:09.024Z,19.96
2022-09-22T15:45:38.993Z,19.86
2022-09-22T15:48:10.057Z,19.78
2022-09-22T15:50:37.759Z,19.99
2022-09-22T15:53:05.453Z,19.88
2022-09-22T15:55:34.343Z,19.84
2022-09-22T15:58:07.346Z,19.69
2022-09-22T16:00:36.478Z,19.91
2022-09-22T16:03:15.438Z,19.51
2022-09-22T16:05:44.810Z,19.66
2022-09-22T16:08:16.507Z,19.73
2022-09-22T16:10:45.322Z,19.72
2022-09-22T16:13:14.057Z,19.43
2022-09-22T16:15:41.780Z,19.51
2022-09-22T16:18:10.852Z,19.24
2022-09-22T16:20:40.720Z,19.40
2022-09-22T16:23:08.439Z,19.56
2022-09-22T16:25:36.466Z,19.26
2022-09-22T16:28:04.744Z,19.59
2022-09-22T16:30:32.519Z,19.30
2022-09-22T16:33:00.775Z,19.43
2022-09-22T16:35:30.089Z,19.07
2022-09-22T16:38:00.145Z,18.93
2022-09-22T16:40:30.688Z,19.21
2022-09-22T16:42:58.514Z,19.32
2022-09-22T16:45:43.854Z,19.02
2022-09-22T16:48:14.282Z,19.17
2022-09-22T16:50:43.380Z,19.29
2022-09-22T16:53:11.091Z,19.06
2022-09-22T16:55:38.849Z,19.29
2022-09-22T16:58:13.092Z,19.31
2022-09-22T17:00:40.860Z,19.08
2022-09-22T17:03:11.166Z,18.71
2022-09-22T17:05:39.434Z,18.95
2022-09-22T17:08:09.150Z,18.83
2022-09-22T17:10:36.908Z,18.82
2022-09-22T17:13:05.178Z,18.92
2022-09-22T17:15:35.664Z,18.82
2022-09-22T17:18:04.632Z,18.75
2022-09-22T17:20:34.930Z,18.76
2022-09-22T17:23:02.675Z,18.74
2022-09-22T17:25:31.735Z,18.65
2022-09-22T17:27:59.489Z,18.32
2022-09-22T17:30:28.298Z,18.14
2022-09-22T17:32:56.028Z,18.15
2022-09-22T17:35:23.746Z,18.28
2022-09-22T17:37:53.413Z,18.19
2022-09-22T17:40:21.203Z,18.04
2022-09-22T17:42:50.296Z,17.92
2022-09-22T17:45:20.134Z,17.75
2022-09-22T17:48:04.976Z,17.79
2022-09-22T17:50:50.415Z,17.33
2022-09-22T17:53:35.616Z,17.41
2022-09-22T17:56:05.138Z,17.59
2022-09-22T17:58:34.235Z,17.51
2022-09-22T18:01:01.967Z,17.41
2022-09-22T18:03:29.673Z,17.42
2022-09-22T18:05:58.261Z,17.27
2022-09-22T18:08:26.160Z,17.24
2022-09-22T18:10:54.479Z,17.25
2022-09-22T18:13:22.241Z,17.18
2022-09-22T18:15:52.258Z,16.53
2022-09-22T18:18:20.083Z,16.39
2022-09-22T18:20:48.335Z,16.60
2022-09-22T18:23:16.647Z,16.66
2022-09-22T18:25:46.433Z,16.29
2022-09-22T18:28:14.142Z,16.35
2022-09-22T18:30:41.950Z,16.06
2022-09-22T18:33:12.898Z,15.93
2022-09-22T18:35:44.282Z,16.02
2022-09-22T18:38:15.987Z,16.05
2022-09-22T18:40:43.884Z,15.86
2022-09-22T18:43:11.600Z,15.93
2022-09-22T18:45:41.510Z,15.69
2022-09-22T18:48:09.200Z,15.99
2022-09-22T18:50:40.936Z,15.96
2022-09-22T18:53:10.826Z,16.00
2022-09-22T18:55:38.929Z,15.99
2022-09-22T18:58:06.603Z,16.05
2022-09-22T19:00:34.294Z,15.76
2022-09-22T19:03:02.093Z,15.92
2022-09-22T19:05:29.848Z,15.85
2022-09-22T19:08:00.379Z,15.79
2022-09-22T19:10:28.130Z,15.80
2022-09-22T19:12:55.846Z,15.94
2022-09-22T19:15:25.239Z,15.89
2022-09-22T19:17:52.951Z,15.90
2022-09-22T19:20:23.798Z,16.03
2022-09-22T19:22:52.237Z,15.97
2022-09-22T19:25:22.447Z,15.97
2022-09-22T19:27:50.321Z,15.97
2022-09-22T19:30:22.397Z,15.43
2022-09-22T19:32:51.580Z,15.24
2022-09-22T19:35:20.273Z,15.41
2022-09-22T19:37:51.623Z,15.36
2022-09-22T19:40:24.374Z,14.89
2022-09-22T19:42:52.950Z,15.04
2022-09-22T19:45:21.129Z,15.37
2022-09-22T19:47:48.891Z,15.28
2022-09-22T19:50:16.724Z,15.38
2022-09-22T19:52:44.420Z,15.36
2022-09-22T19:55:12.405Z,15.18
2022-09-22T19:57:42.055Z,14.96
2022-09-22T20:00:12.309Z,14.32
2022-09-22T20:02:40.074Z,13.97
2022-09-22T20:05:21.597Z,13.40
2022-09-22T20:07:50.539Z,14.10
2022-09-22T20:10:22.402Z,14.47
2022-09-22T20:12:52.504Z,14.59
2022-09-22T20:15:20.996Z,14.54
2022-09-22T20:17:48.690Z,14.50
2022-09-22T20:20:19.637Z,14.36
2022-09-22T20:22:48.638Z,14.22
2022-09-22T20:25:25.040Z,13.07
2022-09-22T20:27:54.691Z,13.02
2022-09-22T20:30:22.632Z,12.82
2022-09-22T20:32:51.478Z,13.38
2022-09-22T20:35:21.721Z,13.33
2022-09-22T20:37:49.594Z,12.84
2022-09-22T20:40:22.963Z,13.02
2022-09-22T20:42:53.064Z,12.97
2022-09-22T20:45:24.775Z,13.26
2022-09-22T20:47:52.645Z,13.52
2022-09-22T20:50:21.122Z,13.39
2022-09-22T20:52:48.888Z,12.65
2022-09-22T20:55:17.013Z,11.99
2022-09-22T20:57:46.832Z,12.19
2022-09-22T21:00:16.245Z,12.08
2022-09-22T21:02:45.448Z,12.20
2022-09-22T21:05:13.145Z,12.76
2022-09-22T21:07:40.923Z,12.31
2022-09-22T21:10:41.195Z,12.75
2022-09-22T21:13:09.479Z,12.86
2022-09-22T21:15:37.224Z,12.67
2022-09-22T21:18:06.400Z,12.72
2022-09-22T21:20:36.438Z,12.75
2022-09-22T21:23:04.103Z,12.77
2022-09-22T21:25:31.853Z,12.27
2022-09-22T21:28:02.147Z,12.49
2022-09-22T21:30:29.890Z,12.55
2022-09-22T21:32:57.559Z,12.73
2022-09-22T21:35:26.581Z,12.51
2022-09-22T21:37:56.922Z,12.67
2022-09-22T21:40:24.919Z,12.70
2022-09-22T21:42:53.076Z,12.31
2022-09-22T21:45:21.045Z,11.97
2022-09-22T21:47:50.964Z,12.15
2022-09-22T21:50:18.654Z,11.00
2022-09-22T21:52:47.891Z,11.17
2022-09-22T21:55:15.816Z,11.69
2022-09-22T21:57:43.525Z,11.94
2022-09-22T22:00:12.244Z,11.60
2022-09-22T22:02:54.095Z,11.88
2022-09-22T22:05:21.849Z,12.04
2022-09-22T22:07:50.921Z,11.90
2022-09-22T22:10:19.075Z,11.86
2022-09-22T22:12:49.190Z,12.05
2022-09-22T22:15:17.124Z,12.07
2022-09-22T22:17:44.822Z,12.02
2022-09-22T22:20:12.549Z,11.63
2022-09-22T22:22:40.234Z,11.12
2022-09-22T22:25:17.791Z,11.35
2022-09-22T22:27:47.528Z,10.60
2022-09-22T22:30:15.443Z,10.87
2022-09-22T22:32:43.234Z,11.35
2022-09-22T22:35:13.047Z,11.64
2022-09-22T22:37:40.759Z,11.78
2022-09-22T22:40:10.555Z,11.64
2022-09-22T22:42:38.299Z,11.57
2022-09-22T22:45:06.778Z,11.21
2022-09-22T22:47:36.781Z,10.43
2022-09-22T22:50:06.315Z,10.55
2022-09-22T22:52:34.042Z,10.88
2022-09-22T22:55:01.785Z,11.01
2022-09-22T22:57:30.919Z,10.94
2022-09-22T22:59:58.604Z,11.13
2022-09-22T23:02:26.298Z,11.38
2022-09-22T23:04:54.236Z,10.97
2022-09-22T23:07:21.984Z,11.15
2022-09-22T23:10:05.919Z,11.32
2022-09-22T23:12:40.259Z,11.31
2022-09-22T23:15:10.463Z,11.42
2022-09-22T23:17:40.658Z,11.19
2022-09-22T23:20:09.591Z,10.95
2022-09-22T23:22:37.327Z,11.19
2022-09-22T23:25:07.915Z,11.19
2022-09-22T23:27:36.987Z,11.24
2022-09-22T23:30:05.295Z,10.90
2022-09-22T23:32:33.056Z,10.45
2022-09-22T23:35:00.777Z,10.68
2022-09-22T23:37:28.583Z,10.38
2022-09-22T23:39:56.319Z,10.74
2022-09-22T23:42:26.079Z,10.80
2022-09-22T23:44:55.089Z,10.99
2022-09-22T23:47:22.786Z,11.04
2022-09-22T23:49:50.452Z,11.07
2022-09-22T23:52:18.153Z,10.96
2022-09-22T23:54:47.928Z,10.75
2022-09-22T23:57:15.609Z,10.28
2022-09-22T23:59:43.380Z,10.64
